»·PEaware :: N969DA WA09-KEAT

N969DA :: WA09-KEAT

FLIGHT INFORMATION

Flight Status: Arrived
Operator: Privately registered:
United States
More flights under this callsign
Pilot: Anonymous 20880 (20880)
Aircraft: Unknown
(DA62)
More flights by this aircraft type
Origin: WA09 Roche Harbor
United States
Destination: KEAT Pangborn Meml
United States
More flights between these airports :: More routes between these airports
Route: ORCUS V495 SEA V120 EAT
File this flight plan on PilotEdge
Remarks:
Altitude:
(Current/Filed)
9,000ft
Speed:
(Current/Filed)
140kts
Departed: 15-Dec-18 12:42 PM
Arrived: 15-Dec-18 02:18 PM
Distance/Time
Traveled:
138nm/1:36
Distance/Time
To Go:
Arrived

Flight Plot

Page will automatically refresh every two minutes.

Flight plan parsing failed; only flown route is shown


Map Options




Map Legend


Flown Route
Filed Route
Departure Airport
Arrival Airport
Navaid (VOR, NDB)
Fix

Horizontal Profiles

Position Reports

Time Latitude Longitude Heading Altitude Ground
Speed
15-Dec-18 12:16 48.611611 -123.144458 261 95ft 0kts
15-Dec-18 12:17 48.611611 -123.144458 261 95ft 0kts
15-Dec-18 12:19 48.611611 -123.144458 261 95ft 0kts
15-Dec-18 12:20 48.611611 -123.144458 261 95ft 0kts
15-Dec-18 12:21 48.611611 -123.144458 261 95ft 0kts
15-Dec-18 12:22 48.611611 -123.144458 261 95ft 0kts
15-Dec-18 12:23 48.611611 -123.144458 261 95ft 0kts
15-Dec-18 12:24 48.611611 -123.144458 261 95ft 0kts
15-Dec-18 12:25 48.611611 -123.144458 261 95ft 0kts
15-Dec-18 12:26 48.611611 -123.144458 261 95ft 0kts
15-Dec-18 12:27 48.611611 -123.144458 261 95ft 0kts
15-Dec-18 12:28 48.611611 -123.144458 261 95ft 0kts
15-Dec-18 12:29 48.611611 -123.144458 261 95ft 0kts
15-Dec-18 12:30 48.611611 -123.144458 261 95ft 0kts
15-Dec-18 12:31 48.611611 -123.144458 261 95ft 0kts
15-Dec-18 12:32 48.611611 -123.144458 261 95ft 0kts
15-Dec-18 12:33 48.611611 -123.144458 261 95ft 0kts
15-Dec-18 12:34 48.611611 -123.144458 261 95ft 0kts
15-Dec-18 12:35 48.611611 -123.144458 261 95ft 0kts
15-Dec-18 12:36 48.611611 -123.144458 261 95ft 0kts
15-Dec-18 12:37 48.611611 -123.144458 261 95ft 0kts
15-Dec-18 12:38 48.611611 -123.144458 261 95ft 0kts
15-Dec-18 12:39 48.611611 -123.144458 261 95ft 0kts
15-Dec-18 12:40 48.611611 -123.144458 261 95ft 0kts
15-Dec-18 12:40 48.611551 -123.143990 99 97ft 3kts
15-Dec-18 12:42 48.611344 -123.138354 89 116ft 76kts
15-Dec-18 12:42 48.598806 -123.129212 227 883ft 128kts
15-Dec-18 12:44 48.565086 -123.140488 180 2165ft 115kts
15-Dec-18 12:44 48.540337 -123.137514 165 2857ft 120kts
15-Dec-18 12:45 48.507847 -123.134742 170 3527ft 131kts
15-Dec-18 12:46 48.479611 -123.133575 172 4069ft 132kts
15-Dec-18 12:47 48.444153 -123.132297 171 4755ft 131kts
15-Dec-18 12:48 48.408097 -123.131076 173 5460ft 129kts
15-Dec-18 12:49 48.372322 -123.129715 173 6157ft 129kts
15-Dec-18 12:50 48.338011 -123.122265 149 6862ft 124kts
15-Dec-18 12:51 48.308489 -123.095709 147 7556ft 124kts
15-Dec-18 12:52 48.279109 -123.068773 149 8246ft 125kts
15-Dec-18 12:53 48.249425 -123.041551 150 8936ft 126kts
15-Dec-18 12:54 48.216524 -123.011464 150 9001ft 148kts
15-Dec-18 12:55 48.180918 -122.978922 150 9003ft 151kts
15-Dec-18 12:56 48.145153 -122.946236 151 9013ft 151kts
15-Dec-18 12:57 48.109264 -122.913415 152 9027ft 152kts
15-Dec-18 12:58 48.072952 -122.880352 153 9022ft 154kts
15-Dec-18 12:59 48.036313 -122.847125 153 9025ft 154kts
15-Dec-18 13:00 47.999657 -122.813901 153 9025ft 155kts
15-Dec-18 13:01 47.963083 -122.780847 152 9021ft 154kts
15-Dec-18 13:02 47.926396 -122.747716 151 9020ft 154kts
15-Dec-18 13:03 47.891356 -122.716020 152 9021ft 161kts
15-Dec-18 13:04 47.859113 -122.687051 152 9021ft 163kts
15-Dec-18 13:05 47.825887 -122.657180 152 9021ft 166kts
15-Dec-18 13:06 47.788285 -122.623447 152 9020ft 177kts
15-Dec-18 13:07 47.760720 -122.598733 152 9020ft 179kts
15-Dec-18 13:08 47.741735 -122.581723 152 9020ft 180kts
15-Dec-18 13:09 47.720209 -122.562451 152 9031ft 180kts
15-Dec-18 13:10 47.695232 -122.540070 153 9008ft 177kts
15-Dec-18 13:11 47.668987 -122.516660 153 9010ft 175kts
15-Dec-18 13:12 47.642704 -122.493239 153 9010ft 174kts
15-Dec-18 13:13 47.616440 -122.469847 153 9010ft 174kts
15-Dec-18 13:14 47.590440 -122.446721 152 9010ft 173kts
15-Dec-18 13:15 47.567038 -122.425927 152 9010ft 172kts
15-Dec-18 13:16 47.544455 -122.405880 152 9010ft 171kts
15-Dec-18 13:17 47.521961 -122.385931 152 9009ft 171kts
15-Dec-18 13:18 47.500304 -122.366747 152 9008ft 170kts
15-Dec-18 13:19 47.479750 -122.348558 153 9006ft 170kts
15-Dec-18 13:20 47.457790 -122.329140 153 9003ft 169kts
15-Dec-18 13:21 47.439904 -122.311170 128 8985ft 163kts
15-Dec-18 13:22 47.436124 -122.278502 97 9004ft 173kts
15-Dec-18 13:23 47.435222 -122.241395 96 9001ft 175kts
15-Dec-18 13:24 47.434494 -122.188793 95 9000ft 176kts
15-Dec-18 13:25 47.433814 -122.125593 95 8998ft 175kts
15-Dec-18 13:26 47.433062 -122.054114 95 9016ft 172kts
15-Dec-18 13:27 47.432280 -121.983976 95 9018ft 172kts
15-Dec-18 13:28 47.431464 -121.913960 95 9013ft 166kts
15-Dec-18 13:29 47.430717 -121.852533 96 9018ft 151kts
15-Dec-18 13:30 47.429934 -121.792827 96 9017ft 149kts
15-Dec-18 13:31 47.429135 -121.733391 96 9018ft 149kts
15-Dec-18 13:32 47.428355 -121.677220 96 9017ft 148kts
15-Dec-18 13:33 47.427539 -121.620399 96 9020ft 147kts
15-Dec-18 13:34 47.426667 -121.561664 96 9017ft 146kts
15-Dec-18 13:35 47.425866 -121.509544 96 9017ft 145kts
15-Dec-18 13:36 47.424930 -121.450436 96 9019ft 144kts
15-Dec-18 13:37 47.424158 -121.402811 96 9025ft 143kts
15-Dec-18 13:38 47.423476 -121.361596 96 9036ft 143kts
15-Dec-18 13:39 47.422849 -121.324594 97 9042ft 143kts
15-Dec-18 13:40 47.422180 -121.288789 92 9028ft 145kts
15-Dec-18 13:41 47.421263 -121.237644 90 8974ft 162kts
15-Dec-18 13:42 47.420116 -121.169899 91 9009ft 174kts
15-Dec-18 13:43 47.418856 -121.101503 92 9705ft 163kts
15-Dec-18 13:44 47.417745 -121.043741 93 10396ft 159kts
15-Dec-18 13:45 47.416840 -120.998395 94 10952ft 157kts
15-Dec-18 13:46 47.416030 -120.958338 94 11449ft 156kts
15-Dec-18 13:47 47.415051 -120.912198 95 11958ft 159kts
15-Dec-18 13:48 47.413477 -120.841283 94 11983ft 180kts
15-Dec-18 13:49 47.411992 -120.772294 95 11979ft 160kts
15-Dec-18 13:50 47.410560 -120.708088 95 11981ft 156kts
15-Dec-18 13:51 47.409757 -120.672733 95 11984ft 154kts
15-Dec-18 13:52 47.408676 -120.625672 95 11985ft 146kts
15-Dec-18 13:53 47.407325 -120.570047 94 11289ft 169kts
15-Dec-18 13:54 47.405886 -120.499512 92 10305ft 173kts
15-Dec-18 13:55 47.404470 -120.429522 91 9314ft 170kts
15-Dec-18 13:56 47.403020 -120.360100 90 8322ft 168kts
15-Dec-18 13:57 47.401562 -120.292222 90 7331ft 166kts
15-Dec-18 13:58 47.400113 -120.227054 89 6172ft 151kts
15-Dec-18 13:59 47.398689 -120.166066 90 6003ft 154kts
15-Dec-18 14:00 47.397065 -120.101221 90 6000ft 160kts
15-Dec-18 14:01 47.395376 -120.035226 90 6000ft 161kts
15-Dec-18 14:02 47.393700 -119.972497 89 5995ft 140kts
15-Dec-18 14:03 47.386544 -119.918113 114 5698ft 134kts
15-Dec-18 14:04 47.364371 -119.875167 139 5187ft 132kts
15-Dec-18 14:05 47.332688 -119.851079 163 5006ft 130kts
15-Dec-18 14:06 47.295943 -119.849422 188 5005ft 136kts
15-Dec-18 14:07 47.261117 -119.873241 215 4874ft 149kts
15-Dec-18 14:08 47.237764 -119.925915 253 4304ft 151kts
15-Dec-18 14:09 47.238927 -119.986107 290 3896ft 137kts
15-Dec-18 14:10 47.258065 -120.029300 316 3878ft 122kts
15-Dec-18 14:11 47.285662 -120.054801 329 3880ft 115kts
15-Dec-18 14:12 47.313382 -120.077143 329 3881ft 113kts
15-Dec-18 14:13 47.341593 -120.099977 329 3641ft 125kts
15-Dec-18 14:14 47.362009 -120.137679 280 2480ft 119kts
15-Dec-18 14:15 47.375904 -120.173561 312 1921ft 105kts
15-Dec-18 14:16 47.396477 -120.203650 315 1229ft 71kts
15-Dec-18 14:17 47.400902 -120.208202 68 1224ft 8kts
15-Dec-18 14:18 47.400916 -120.208151 68 1225ft 0kts
15-Dec-18 14:19 47.402035 -120.207479 315 1228ft 19kts
15-Dec-18 14:20 47.402673 -120.208213 317 1227ft 0kts

Navigation Log

Ident Type
Flight plan parsing failed, navigation log unavailable